Murrayville, Georgia
Current Conditions -  °F | °C
As of 10:53 AM on Friday 21 Nov 2014 (Local Time) from KGVL Reporting Station
Clear Clear  
Wind Chill: 53°   Ceiling: Unl
Heat Index: 53°   Visibility: 10mi
Dew Point: 25°   Wind: 7mph
Humidity: 34%   Direction: 310°NW
Pressure: 30.41"   Gusts: NA
Location:  34.42°N, 83.91°W
Report Text: KGVL 211553Z AUTO 31006KT 10SM CLR 12/M04 A3041 RMK AO2 SLP295 T01171039
Loading
Personal Weather Stations






























Interactive Weather Map New forecast layout! Learn more

10-Day Weather Forecast

Advertisements
Track Severe Weather on mobile